createdAt,value
2017-11-26T00:01:18.620Z,100723.58
2017-11-26T00:03:46.935Z,100715.09
2017-11-26T00:06:16.010Z,100722.38
2017-11-26T00:08:44.553Z,100723.36
2017-11-26T00:11:12.890Z,100726.30
2017-11-26T00:13:41.974Z,100716.75
2017-11-26T00:16:10.295Z,100720.67
2017-11-26T00:18:38.620Z,100720.99
2017-11-26T00:21:06.930Z,100722.70
2017-11-26T00:23:35.256Z,100716.95
2017-11-26T00:26:03.559Z,100715.27
2017-11-26T00:28:31.994Z,100711.23
2017-11-26T00:31:00.308Z,100720.09
2017-11-26T00:33:28.623Z,100719.75
2017-11-26T00:35:57.032Z,100726.61
2017-11-26T00:38:25.351Z,100725.00
2017-11-26T00:40:53.690Z,100733.97
2017-11-26T00:43:22.060Z,100731.87
2017-11-26T00:45:50.391Z,100724.02
2017-11-26T00:48:18.751Z,100731.09
2017-11-26T00:50:47.179Z,100731.97
2017-11-26T00:53:15.564Z,100741.84
2017-11-26T00:55:43.886Z,100739.62
2017-11-26T00:58:12.275Z,100736.00
2017-11-26T01:00:40.696Z,100736.58
2017-11-26T01:03:09.091Z,100740.33
2017-11-26T01:05:37.502Z,100741.36
2017-11-26T01:08:05.812Z,100746.57
2017-11-26T01:10:34.963Z,100754.35
2017-11-26T01:13:03.331Z,100751.42
2017-11-26T01:15:31.709Z,100747.45
2017-11-26T01:18:00.064Z,100752.88
2017-11-26T01:20:28.452Z,100752.86
2017-11-26T01:22:56.941Z,100752.05
2017-11-26T01:25:25.504Z,100753.84
2017-11-26T01:27:53.878Z,100751.22
2017-11-26T01:30:23.088Z,100751.42
2017-11-26T01:32:51.396Z,100744.98
2017-11-26T01:35:19.755Z,100740.39
2017-11-26T01:37:48.163Z,100733.06
2017-11-26T01:40:16.568Z,100743.38
2017-11-26T01:42:44.992Z,100741.11
2017-11-26T01:45:13.367Z,100741.06
2017-11-26T01:47:41.717Z,100738.33
2017-11-26T01:50:10.904Z,100740.23
2017-11-26T01:52:39.300Z,100749.31
2017-11-26T01:55:08.507Z,100739.52
2017-11-26T01:57:36.813Z,100739.50
2017-11-26T02:00:05.141Z,100745.03
2017-11-26T02:02:34.218Z,100748.33
2017-11-26T02:05:02.534Z,100745.08
2017-11-26T02:07:31.606Z,100754.58
2017-11-26T02:09:59.924Z,100746.11
2017-11-26T02:12:28.288Z,100753.02
2017-11-26T02:14:56.620Z,100762.39
2017-11-26T02:17:24.939Z,100759.22
2017-11-26T02:19:54.086Z,100758.03
2017-11-26T02:22:22.388Z,100757.52
2017-11-26T02:24:50.764Z,100767.66
2017-11-26T02:27:19.159Z,100771.02
2017-11-26T02:29:48.267Z,100771.61
2017-11-26T02:32:34.544Z,100770.64
2017-11-26T02:35:21.368Z,100777.19
2017-11-26T02:37:50.452Z,100781.11
2017-11-26T02:40:19.536Z,100796.04
2017-11-26T02:42:47.909Z,100794.06
2017-11-26T02:45:16.220Z,100799.00
2017-11-26T02:47:45.362Z,100795.27
2017-11-26T02:50:13.695Z,100796.24
2017-11-26T02:52:42.018Z,100800.44
2017-11-26T02:55:10.329Z,100804.88
2017-11-26T02:57:39.420Z,100808.63
2017-11-26T03:00:07.751Z,100804.19
2017-11-26T03:02:36.057Z,100814.22
2017-11-26T03:05:04.375Z,100809.50
2017-11-26T03:07:33.470Z,100804.33
2017-11-26T03:10:01.791Z,100810.95
2017-11-26T03:12:30.107Z,100802.20
2017-11-26T03:14:59.192Z,100801.01
2017-11-26T03:17:27.531Z,100806.22
2017-11-26T03:19:55.851Z,100803.71
2017-11-26T03:22:24.167Z,100808.91
2017-11-26T03:24:52.508Z,100806.75
2017-11-26T03:27:20.858Z,100807.61
2017-11-26T03:29:49.209Z,100814.16
2017-11-26T03:32:17.542Z,100807.52
2017-11-26T03:34:45.878Z,100817.77
2017-11-26T03:37:14.203Z,100806.75
2017-11-26T03:39:43.337Z,100812.88
2017-11-26T03:42:11.679Z,100811.48
2017-11-26T03:44:40.805Z,100810.23
2017-11-26T03:47:09.135Z,100813.84
2017-11-26T03:49:37.489Z,100813.91
2017-11-26T03:52:05.806Z,100816.67
2017-11-26T03:54:34.955Z,100817.25
2017-11-26T03:57:03.320Z,100815.02
2017-11-26T03:59:31.631Z,100809.92
2017-11-26T04:01:59.975Z,100817.63
2017-11-26T04:04:28.321Z,100816.73
2017-11-26T04:06:57.405Z,100807.30
2017-11-26T04:09:25.719Z,100808.09
2017-11-26T04:11:54.031Z,100806.81
2017-11-26T04:14:22.338Z,100807.72
2017-11-26T04:16:51.476Z,100801.22
2017-11-26T04:19:19.785Z,100806.95
2017-11-26T04:21:48.123Z,100811.50
2017-11-26T04:24:16.426Z,100817.58
2017-11-26T04:26:44.740Z,100821.05
2017-11-26T04:29:13.064Z,100828.19
2017-11-26T04:31:41.386Z,100831.98
2017-11-26T04:34:09.695Z,100839.45
2017-11-26T04:36:38.016Z,100837.48
2017-11-26T04:39:06.357Z,100831.80
2017-11-26T04:41:34.691Z,100831.28
2017-11-26T04:44:02.990Z,100836.84
2017-11-26T04:46:31.297Z,100838.50
2017-11-26T04:48:59.599Z,100837.83
2017-11-26T04:51:27.932Z,100836.55
2017-11-26T04:53:56.995Z,100838.88
2017-11-26T04:56:25.311Z,100845.09
2017-11-26T04:58:54.423Z,100837.49
2017-11-26T05:01:22.730Z,100843.36
2017-11-26T05:03:51.039Z,100844.63
2017-11-26T05:06:20.606Z,100852.25
2017-11-26T05:08:48.934Z,100860.88
2017-11-26T05:11:18.013Z,100863.89
2017-11-26T05:13:51.239Z,100861.63
2017-11-26T05:16:19.561Z,100855.52
2017-11-26T05:18:47.882Z,100859.66
2017-11-26T05:21:16.959Z,100866.58
2017-11-26T05:23:45.295Z,100865.78
2017-11-26T05:26:13.606Z,100864.69
2017-11-26T05:28:41.930Z,100865.11
2017-11-26T05:31:10.263Z,100866.66
2017-11-26T05:33:38.577Z,100870.56
2017-11-26T05:36:06.879Z,100872.94
2017-11-26T05:38:35.207Z,100868.44
2017-11-26T05:41:03.522Z,100872.52
2017-11-26T05:43:31.844Z,100869.61
2017-11-26T05:46:00.159Z,100868.59
2017-11-26T05:48:28.470Z,100870.45
2017-11-26T05:50:56.807Z,100872.30
2017-11-26T05:53:25.887Z,100880.16
2017-11-26T05:55:54.970Z,100878.41
2017-11-26T05:58:23.291Z,100877.20
2017-11-26T06:00:51.649Z,100885.68
2017-11-26T06:03:19.979Z,100892.71
2017-11-26T06:05:48.303Z,100885.94
2017-11-26T06:08:16.607Z,100894.47
2017-11-26T06:10:44.898Z,100899.54
2017-11-26T06:13:13.217Z,100892.71
2017-11-26T06:15:41.527Z,100890.35
2017-11-26T06:18:09.847Z,100892.05
2017-11-26T06:20:38.159Z,100892.88
2017-11-26T06:23:07.245Z,100900.89
2017-11-26T06:25:36.325Z,100899.28
2017-11-26T06:28:04.640Z,100899.61
2017-11-26T06:30:33.712Z,100903.61
2017-11-26T06:33:02.035Z,100906.31
2017-11-26T06:35:30.342Z,100901.80
2017-11-26T06:37:58.654Z,100904.83
2017-11-26T06:40:27.715Z,100900.06
2017-11-26T06:42:56.049Z,100901.58
2017-11-26T06:45:24.357Z,100912.03
2017-11-26T06:47:52.675Z,100916.20
2017-11-26T06:50:20.979Z,100914.95
2017-11-26T06:52:49.303Z,100913.79
2017-11-26T06:55:18.372Z,100903.67
2017-11-26T06:57:46.690Z,100914.87
2017-11-26T07:00:15.003Z,100911.42
2017-11-26T07:02:43.311Z,100913.86
2017-11-26T07:05:11.632Z,100918.46
2017-11-26T07:07:39.963Z,100923.30
2017-11-26T07:10:08.281Z,100925.14
2017-11-26T07:12:36.601Z,100937.20
2017-11-26T07:15:04.930Z,100935.10
2017-11-26T07:17:33.269Z,100933.41
2017-11-26T07:20:01.580Z,100926.14
2017-11-26T07:22:29.928Z,100931.25
2017-11-26T07:24:58.239Z,100932.33
2017-11-26T07:27:26.555Z,100933.56
2017-11-26T07:29:54.865Z,100938.17
2017-11-26T07:32:23.181Z,100938.48
2017-11-26T07:34:51.512Z,100953.38
2017-11-26T07:37:19.838Z,100947.27
2017-11-26T07:39:48.932Z,100946.49
2017-11-26T07:42:17.256Z,100955.67
2017-11-26T07:44:45.556Z,100966.14
2017-11-26T07:47:13.862Z,100968.72
2017-11-26T07:49:42.183Z,100967.77
2017-11-26T07:52:10.487Z,100968.70
2017-11-26T07:54:38.803Z,100977.16
2017-11-26T07:57:07.906Z,100974.23
2017-11-26T07:59:36.989Z,100977.53
2017-11-26T08:02:06.063Z,100971.63
2017-11-26T08:04:34.378Z,100965.66
2017-11-26T08:07:03.450Z,100970.08
2017-11-26T08:09:31.774Z,100962.11
2017-11-26T08:12:00.065Z,100970.52
2017-11-26T08:14:28.370Z,100962.45
2017-11-26T08:16:56.677Z,100966.27
2017-11-26T08:19:25.759Z,100971.63
2017-11-26T08:21:54.061Z,100977.34
2017-11-26T08:24:22.401Z,100967.15
2017-11-26T08:26:50.723Z,100963.67
2017-11-26T08:29:19.043Z,100976.46
2017-11-26T08:31:47.350Z,100972.80
2017-11-26T08:34:16.447Z,100973.98
2017-11-26T08:36:44.775Z,100978.12
2017-11-26T08:39:13.087Z,100979.14
2017-11-26T08:41:41.405Z,100975.58
2017-11-26T08:44:09.714Z,100978.45
2017-11-26T08:46:38.027Z,100975.63
2017-11-26T08:49:06.349Z,100980.23
2017-11-26T08:51:34.671Z,100979.17
2017-11-26T08:54:02.983Z,100982.45
2017-11-26T08:56:31.296Z,100990.30
2017-11-26T08:58:59.605Z,100992.45
2017-11-26T09:01:27.951Z,100999.15
2017-11-26T09:03:56.283Z,100997.72
2017-11-26T09:06:35.350Z,100995.22
2017-11-26T09:09:03.672Z,100991.23
2017-11-26T09:11:31.975Z,101006.58
2017-11-26T09:14:00.290Z,101000.42
2017-11-26T09:16:28.593Z,100994.68
2017-11-26T09:18:56.911Z,100995.81
2017-11-26T09:21:25.238Z,100995.26
2017-11-26T09:23:53.541Z,100996.23
2017-11-26T09:26:21.838Z,100990.32
2017-11-26T09:28:50.914Z,100987.28
2017-11-26T09:31:19.980Z,100980.81
2017-11-26T09:33:48.286Z,100987.19
2017-11-26T09:36:17.358Z,100984.19
2017-11-26T09:38:45.663Z,100991.52
2017-11-26T09:41:14.735Z,100987.10
2017-11-26T09:43:43.115Z,100987.13
2017-11-26T09:46:11.418Z,100987.33
2017-11-26T09:48:40.502Z,100986.08
2017-11-26T09:51:09.590Z,100982.75
2017-11-26T09:53:37.903Z,100986.04
2017-11-26T09:58:41.529Z,100977.27
2017-11-26T10:01:09.846Z,100969.54
2017-11-26T10:03:38.190Z,100976.58
2017-11-26T10:06:06.492Z,100971.71
2017-11-26T10:08:34.818Z,100972.77
2017-11-26T10:11:03.890Z,100969.59
2017-11-26T10:13:32.195Z,100960.50
2017-11-26T10:16:01.267Z,100957.42
2017-11-26T10:18:30.361Z,100952.22
2017-11-26T10:20:58.707Z,100954.77
2017-11-26T10:23:26.996Z,100949.84
2017-11-26T10:25:55.302Z,100949.90
2017-11-26T10:28:24.366Z,100948.98
2017-11-26T10:30:52.686Z,100949.20
2017-11-26T10:33:20.998Z,100951.06
2017-11-26T10:35:49.335Z,100943.64
2017-11-26T10:38:18.458Z,100952.16
2017-11-26T10:40:47.499Z,100951.73
2017-11-26T10:43:15.822Z,100954.85
2017-11-26T10:45:44.117Z,100952.88
2017-11-26T10:48:12.426Z,100949.36
2017-11-26T10:50:40.726Z,100946.16
2017-11-26T10:53:09.799Z,100949.86
2017-11-26T10:55:38.102Z,100949.97
2017-11-26T10:58:07.171Z,100948.31
2017-11-26T11:00:35.494Z,100956.20
2017-11-26T11:03:03.804Z,100956.97
2017-11-26T11:05:32.099Z,100965.51
2017-11-26T11:08:00.447Z,100951.81
2017-11-26T11:10:28.754Z,100951.30
2017-11-26T11:12:57.086Z,100944.23
2017-11-26T11:15:25.378Z,100944.11
2017-11-26T11:17:53.691Z,100937.58
2017-11-26T11:20:21.998Z,100950.33
2017-11-26T11:22:50.302Z,100957.53
2017-11-26T11:25:19.935Z,100955.26
2017-11-26T11:27:48.228Z,100959.18
2017-11-26T11:30:16.566Z,100963.50
2017-11-26T11:32:44.915Z,100954.48
2017-11-26T11:35:13.222Z,100948.39
2017-11-26T11:37:41.559Z,100957.94
2017-11-26T11:40:10.634Z,100956.95
2017-11-26T11:42:38.981Z,100961.44
2017-11-26T11:45:07.290Z,100959.41
2017-11-26T11:47:35.598Z,100952.09
2017-11-26T11:50:04.760Z,100955.26
2017-11-26T11:52:33.737Z,100951.91
2017-11-26T11:55:02.197Z,100957.42
2017-11-26T11:57:30.541Z,100954.45
2017-11-26T11:59:59.656Z,100954.33
2017-11-26T12:02:28.758Z,100951.20
2017-11-26T12:04:57.134Z,100950.14
2017-11-26T12:07:25.511Z,100955.27
2017-11-26T12:09:53.993Z,100954.67
2017-11-26T12:12:22.397Z,100954.67
2017-11-26T12:14:50.849Z,100945.75
2017-11-26T12:17:19.189Z,100953.91
2017-11-26T12:19:47.531Z,100958.24
2017-11-26T12:22:15.885Z,100958.19
2017-11-26T12:24:44.258Z,100961.84
2017-11-26T12:27:12.635Z,100957.22
2017-11-26T12:29:41.115Z,100960.38
2017-11-26T12:32:10.209Z,100972.03
2017-11-26T12:34:38.600Z,100966.31
2017-11-26T12:37:07.016Z,100968.71
2017-11-26T12:39:35.343Z,100961.83
2017-11-26T12:42:04.530Z,100961.86
2017-11-26T12:44:33.735Z,100961.64
2017-11-26T12:47:02.055Z,100956.41
2017-11-26T12:49:30.409Z,100956.27
2017-11-26T12:51:58.781Z,100954.58
2017-11-26T12:54:27.189Z,100960.46
2017-11-26T12:56:55.501Z,100958.63
2017-11-26T12:59:23.839Z,100963.53
2017-11-26T13:01:52.220Z,100964.39
2017-11-26T13:04:20.549Z,100961.82
2017-11-26T13:06:49.696Z,100970.28
2017-11-26T13:09:18.072Z,100959.91
2017-11-26T13:11:46.385Z,100963.66
2017-11-26T13:14:14.817Z,100960.16
2017-11-26T13:16:43.128Z,100957.72
2017-11-26T13:19:11.460Z,100955.26
2017-11-26T13:21:39.823Z,100963.88
2017-11-26T13:24:08.891Z,100962.09
2017-11-26T13:26:37.211Z,100962.48
2017-11-26T13:29:05.512Z,100958.61
2017-11-26T13:31:33.842Z,100969.70
2017-11-26T13:34:02.943Z,100969.50
2017-11-26T13:36:31.277Z,100963.46
2017-11-26T13:38:59.592Z,100973.78
2017-11-26T13:41:28.690Z,100969.95
2017-11-26T13:43:57.763Z,100972.27
2017-11-26T13:46:26.089Z,100967.11
2017-11-26T13:48:54.431Z,100962.36
2017-11-26T13:51:22.750Z,100980.36
2017-11-26T13:53:51.059Z,100987.80
2017-11-26T13:56:19.406Z,100986.57
2017-11-26T13:58:47.714Z,100993.67
2017-11-26T14:01:16.183Z,100981.80
2017-11-26T14:03:44.530Z,100998.13
2017-11-26T14:06:12.870Z,100991.73
2017-11-26T14:08:41.187Z,100998.53
2017-11-26T14:11:09.503Z,100996.56
2017-11-26T14:13:37.843Z,101001.55
2017-11-26T14:16:06.210Z,101004.39
2017-11-26T14:18:35.286Z,101003.52
2017-11-26T14:21:03.598Z,101007.76
2017-11-26T14:23:31.902Z,101004.91
2017-11-26T14:26:00.218Z,101010.30
2017-11-26T14:28:29.295Z,101015.28
2017-11-26T14:30:57.626Z,101021.33
2017-11-26T14:33:26.003Z,101016.16
2017-11-26T14:35:54.311Z,101024.88
2017-11-26T14:38:22.643Z,101016.48
2017-11-26T14:40:50.982Z,101012.44
2017-11-26T14:43:19.312Z,101022.97
2017-11-26T14:45:47.619Z,101016.22
2017-11-26T14:48:15.920Z,101022.68
2017-11-26T14:50:44.245Z,101028.85
2017-11-26T14:53:12.543Z,101028.72
2017-11-26T14:55:40.900Z,101026.69
2017-11-26T14:58:09.235Z,101035.41
2017-11-26T15:00:37.572Z,101036.90
2017-11-26T15:03:05.884Z,101044.78
2017-11-26T15:05:34.203Z,101044.67
2017-11-26T15:08:02.547Z,101049.63
2017-11-26T15:10:30.927Z,101054.13
2017-11-26T15:12:59.254Z,101052.67
2017-11-26T15:15:27.583Z,101064.91
2017-11-26T15:17:56.383Z,101063.87
2017-11-26T15:20:25.517Z,101057.89
2017-11-26T15:22:53.839Z,101057.06
2017-11-26T15:25:22.175Z,101062.25
2017-11-26T15:27:50.495Z,101055.76
2017-11-26T15:30:18.837Z,101062.02
2017-11-26T15:32:47.181Z,101059.73
2017-11-26T15:35:16.295Z,101059.94
2017-11-26T15:37:44.647Z,101058.98
2017-11-26T15:40:13.718Z,101059.63
2017-11-26T15:42:42.048Z,101058.33
2017-11-26T15:45:10.346Z,101060.19
2017-11-26T15:47:38.712Z,101053.04
2017-11-26T15:50:07.064Z,101065.55
2017-11-26T15:52:35.382Z,101059.53
2017-11-26T15:55:03.742Z,101063.67
2017-11-26T15:57:32.039Z,101069.86
2017-11-26T16:00:00.365Z,101066.89
2017-11-26T16:02:29.486Z,101066.23
2017-11-26T16:04:57.800Z,101066.03
2017-11-26T16:07:26.116Z,101076.88
2017-11-26T16:09:55.217Z,101056.98
2017-11-26T16:12:24.311Z,101068.34
2017-11-26T16:14:53.384Z,101070.59
2017-11-26T16:17:21.714Z,101069.76
2017-11-26T16:19:50.851Z,101081.75
2017-11-26T16:22:19.151Z,101074.80
2017-11-26T16:24:48.252Z,101071.59
2017-11-26T16:27:17.318Z,101079.33
2017-11-26T16:29:45.642Z,101079.84
2017-11-26T16:32:14.114Z,101088.55
2017-11-26T16:34:42.432Z,101079.30
2017-11-26T16:37:11.057Z,101089.14
2017-11-26T16:39:40.130Z,101084.58
2017-11-26T16:42:08.478Z,101065.86
2017-11-26T16:44:36.802Z,101091.97
2017-11-26T16:47:05.121Z,101092.48
2017-11-26T16:49:33.468Z,101095.66
2017-11-26T16:52:02.612Z,101091.80
2017-11-26T16:54:30.933Z,101098.53
2017-11-26T16:56:59.239Z,101095.53
2017-11-26T16:59:27.550Z,101105.68
2017-11-26T17:01:55.858Z,101099.91
2017-11-26T17:04:24.982Z,101102.67
2017-11-26T17:06:53.302Z,101099.95
2017-11-26T17:09:21.608Z,101108.03
2017-11-26T17:11:49.934Z,101098.66
2017-11-26T17:14:18.235Z,101101.49
2017-11-26T17:16:46.559Z,101105.64
2017-11-26T17:19:14.873Z,101105.26
2017-11-26T17:21:43.182Z,101106.34
2017-11-26T17:24:11.498Z,101106.30
2017-11-26T17:26:39.823Z,101110.97
2017-11-26T17:29:08.195Z,101110.76
2017-11-26T17:31:36.547Z,101110.91
2017-11-26T17:34:04.869Z,101111.30
2017-11-26T17:36:33.204Z,101113.92
2017-11-26T17:39:01.547Z,101117.41
2017-11-26T17:41:30.645Z,101117.20
2017-11-26T17:43:58.970Z,101115.95
2017-11-26T17:46:27.286Z,101121.61
2017-11-26T17:48:55.618Z,101120.88
2017-11-26T17:51:23.997Z,101120.67
2017-11-26T17:53:52.927Z,101121.30
2017-11-26T17:56:21.241Z,101117.09
2017-11-26T17:58:50.356Z,101117.65
2017-11-26T18:01:18.671Z,101123.00
2017-11-26T18:03:46.973Z,101118.54
2017-11-26T18:06:15.307Z,101114.81
2017-11-26T18:08:43.631Z,101117.11
2017-11-26T18:11:12.716Z,101121.97
2017-11-26T18:13:41.034Z,101117.84
2017-11-26T18:16:10.154Z,101123.84
2017-11-26T18:18:38.488Z,101124.55
2017-11-26T18:21:07.576Z,101124.32
2017-11-26T18:23:36.645Z,101129.48
2017-11-26T18:26:04.981Z,101130.70
2017-11-26T18:28:33.276Z,101137.72
2017-11-26T18:31:01.610Z,101133.74
2017-11-26T18:33:30.675Z,101136.44
2017-11-26T18:35:59.039Z,101139.22
2017-11-26T18:38:27.350Z,101136.52
2017-11-26T18:40:55.652Z,101134.05
2017-11-26T18:43:24.001Z,101133.75
2017-11-26T18:45:52.296Z,101135.47
2017-11-26T18:48:21.380Z,101136.75
2017-11-26T18:50:50.471Z,101134.58
2017-11-26T18:53:18.769Z,101133.97
2017-11-26T18:55:47.107Z,101139.30
2017-11-26T18:58:15.423Z,101136.09
2017-11-26T19:00:44.523Z,101137.19
2017-11-26T19:03:12.828Z,101140.56
2017-11-26T19:05:41.142Z,101139.44
2017-11-26T19:08:09.461Z,101144.17
2017-11-26T19:10:37.758Z,101150.95
2017-11-26T19:13:06.109Z,101145.77
2017-11-26T19:15:34.475Z,101147.55
2017-11-26T19:18:03.547Z,101151.45
2017-11-26T19:20:31.886Z,101150.83
2017-11-26T19:23:00.197Z,101150.78
2017-11-26T19:25:28.535Z,101157.36
2017-11-26T19:27:56.886Z,101154.92
2017-11-26T19:30:25.979Z,101155.53
2017-11-26T19:32:55.061Z,101150.25
2017-11-26T19:35:24.137Z,101168.42
2017-11-26T19:37:52.480Z,101162.58
2017-11-26T19:40:20.774Z,101164.39
2017-11-26T19:42:49.070Z,101157.44
2017-11-26T19:45:17.378Z,101167.49
2017-11-26T19:47:46.459Z,101170.79
2017-11-26T19:50:15.551Z,101179.64
2017-11-26T19:52:44.645Z,101180.43
2017-11-26T19:55:12.961Z,101183.73
2017-11-26T19:57:41.266Z,101178.53
2017-11-26T20:00:09.563Z,101176.77
2017-11-26T20:02:37.898Z,101186.51
2017-11-26T20:05:06.240Z,101188.78
2017-11-26T20:07:35.364Z,101184.00
2017-11-26T20:10:03.730Z,101184.80
2017-11-26T20:12:32.795Z,101179.87
2017-11-26T20:15:01.132Z,101183.77
2017-11-26T20:17:29.429Z,101179.50
2017-11-26T20:19:57.734Z,101179.12
2017-11-26T20:22:26.058Z,101185.64
2017-11-26T20:24:54.374Z,101182.37
2017-11-26T20:27:22.729Z,101183.92
2017-11-26T20:29:51.024Z,101183.53
2017-11-26T20:32:19.347Z,101181.63
2017-11-26T20:34:48.405Z,101186.02
2017-11-26T20:37:16.710Z,101190.22
2017-11-26T20:39:45.833Z,101199.75
2017-11-26T20:42:14.143Z,101196.91
2017-11-26T20:44:42.457Z,101198.65
2017-11-26T20:47:11.523Z,101204.89
2017-11-26T20:49:39.854Z,101201.91
2017-11-26T20:52:08.193Z,101202.84
2017-11-26T20:54:36.499Z,101203.65
2017-11-26T20:57:04.832Z,101207.84
2017-11-26T20:59:33.154Z,101209.91
2017-11-26T21:02:02.226Z,101210.41
2017-11-26T21:04:30.520Z,101216.35
2017-11-26T21:06:59.644Z,101209.87
2017-11-26T21:09:27.950Z,101213.22
2017-11-26T21:11:56.259Z,101218.30
2017-11-26T21:14:25.360Z,101206.75
2017-11-26T21:16:54.438Z,101210.83
2017-11-26T21:19:22.796Z,101213.98
2017-11-26T21:21:51.148Z,101212.59
2017-11-26T21:24:19.456Z,101206.52
2017-11-26T21:26:47.835Z,101201.38
2017-11-26T21:29:16.143Z,101199.52
2017-11-26T21:31:44.473Z,101177.72
2017-11-26T21:34:12.783Z,101200.30
2017-11-26T21:36:41.102Z,101193.63
2017-11-26T21:39:09.410Z,101199.06
2017-11-26T21:41:37.769Z,101188.45
2017-11-26T21:44:06.086Z,101197.34
2017-11-26T21:46:34.413Z,101199.47
2017-11-26T21:49:02.745Z,101197.20
2017-11-26T21:51:31.059Z,101193.20
2017-11-26T21:53:59.390Z,101202.42
2017-11-26T21:56:27.699Z,101194.97
2017-11-26T21:58:56.807Z,101197.70
2017-11-26T22:01:25.189Z,101201.69
2017-11-26T22:03:53.490Z,101202.17
2017-11-26T22:06:21.804Z,101206.97
2017-11-26T22:08:50.143Z,101198.29
2017-11-26T22:11:18.467Z,101207.53
2017-11-26T22:13:46.787Z,101208.58
2017-11-26T22:16:15.142Z,101206.72
2017-11-26T22:18:44.216Z,101220.73
2017-11-26T22:21:12.528Z,101219.11
2017-11-26T22:23:40.846Z,101216.88
2017-11-26T22:26:09.841Z,101225.42
2017-11-26T22:28:38.239Z,101221.33
2017-11-26T22:31:06.547Z,101221.89
2017-11-26T22:33:35.638Z,101226.25
2017-11-26T22:36:04.748Z,101227.77
2017-11-26T22:38:33.086Z,101228.29
2017-11-26T22:41:01.411Z,101228.30
2017-11-26T22:43:29.730Z,101222.46
2017-11-26T22:45:58.038Z,101224.59
2017-11-26T22:48:27.187Z,101223.75
2017-11-26T22:50:56.302Z,101222.00
2017-11-26T22:53:24.631Z,101223.30
2017-11-26T22:55:52.934Z,101221.91
2017-11-26T22:58:21.246Z,101225.80
2017-11-26T23:00:49.545Z,101232.42
2017-11-26T23:03:19.448Z,101222.34
2017-11-26T23:05:48.514Z,101221.09
2017-11-26T23:08:16.856Z,101224.55
2017-11-26T23:10:45.177Z,101230.14
2017-11-26T23:13:13.492Z,101229.98
2017-11-26T23:15:41.818Z,101221.84
2017-11-26T23:18:10.133Z,101226.92
2017-11-26T23:20:39.238Z,101218.30
2017-11-26T23:23:08.298Z,101220.36
2017-11-26T23:25:36.620Z,101222.02
2017-11-26T23:28:04.944Z,101223.00
2017-11-26T23:30:33.258Z,101217.77
2017-11-26T23:33:02.338Z,101214.99
2017-11-26T23:35:30.662Z,101217.67
2017-11-26T23:37:58.978Z,101213.95
2017-11-26T23:40:27.300Z,101213.91
2017-11-26T23:42:55.635Z,101216.23
2017-11-26T23:45:23.943Z,101214.02
2017-11-26T23:47:53.002Z,101214.05
2017-11-26T23:50:21.335Z,101210.61
2017-11-26T23:52:49.665Z,101216.70
2017-11-26T23:55:17.984Z,101210.70
2017-11-26T23:57:46.309Z,101212.05
